createdAt,value
2019-05-01T00:02:22.790Z,5.10
2019-05-01T00:05:03.337Z,4.57
2019-05-01T00:07:37.000Z,4.00
2019-05-01T00:10:07.503Z,4.40
2019-05-01T00:12:36.866Z,4.93
2019-05-01T00:15:06.966Z,3.50
2019-05-01T00:17:36.830Z,4.17
2019-05-01T00:20:06.473Z,4.73
2019-05-01T00:22:35.798Z,5.03
2019-05-01T00:25:05.487Z,4.10
2019-05-01T00:27:34.798Z,3.93
2019-05-01T00:30:05.591Z,3.97
2019-05-01T00:32:34.962Z,4.97
2019-05-01T00:35:04.441Z,5.43
2019-05-01T00:37:33.806Z,3.20
2019-05-01T00:40:03.110Z,3.70
2019-05-01T00:42:32.513Z,3.73
2019-05-01T00:45:02.922Z,4.10
2019-05-01T00:47:32.326Z,4.53
2019-05-01T00:50:05.606Z,4.83
2019-05-01T00:52:34.902Z,4.80
2019-05-01T00:55:22.091Z,4.63
2019-05-01T00:58:04.588Z,4.20
2019-05-01T01:01:03.037Z,4.60
2019-05-01T01:03:32.378Z,4.87
2019-05-01T01:06:01.878Z,3.70
2019-05-01T01:08:31.228Z,5.97
2019-05-01T01:11:00.550Z,4.27
2019-05-01T01:13:29.846Z,5.73
2019-05-01T01:15:59.203Z,4.27
2019-05-01T01:18:28.534Z,3.87
2019-05-01T01:20:57.860Z,3.70
2019-05-01T01:23:27.554Z,4.40
2019-05-01T01:25:56.886Z,5.70
2019-05-01T01:28:26.210Z,5.20
2019-05-01T01:30:56.797Z,4.63
2019-05-01T01:33:26.348Z,4.00
2019-05-01T01:35:55.770Z,5.10
2019-05-01T01:38:25.125Z,5.30
2019-05-01T01:40:54.564Z,4.33
2019-05-01T01:43:44.050Z,4.53
2019-05-01T01:46:15.510Z,4.10
2019-05-01T01:48:44.853Z,5.30
2019-05-01T01:51:14.194Z,4.20
2019-05-01T01:53:43.580Z,4.77
2019-05-01T01:56:13.082Z,5.07
2019-05-01T01:58:42.781Z,6.60
2019-05-01T02:01:40.182Z,4.70
2019-05-01T02:04:40.493Z,3.53
2019-05-01T02:07:09.850Z,4.97
2019-05-01T02:09:39.195Z,4.77
2019-05-01T02:12:08.611Z,5.87
2019-05-01T02:14:37.926Z,3.73
2019-05-01T02:17:07.418Z,4.07
2019-05-01T02:19:36.729Z,4.47
2019-05-01T02:22:06.152Z,4.10
2019-05-01T02:24:35.456Z,6.03
2019-05-01T02:27:08.374Z,3.50
2019-05-01T02:29:44.133Z,4.63
2019-05-01T02:32:15.055Z,5.17
2019-05-01T02:34:45.168Z,4.53
2019-05-01T02:37:15.822Z,3.40
2019-05-01T02:39:46.655Z,4.33
2019-05-01T02:42:17.648Z,5.93
2019-05-01T02:44:51.949Z,4.60
2019-05-01T02:47:26.404Z,5.03
2019-05-01T02:50:05.490Z,3.07
2019-05-01T02:52:37.900Z,4.90
2019-05-01T02:55:37.872Z,4.50
2019-05-01T02:58:07.633Z,5.13
2019-05-01T03:00:37.082Z,5.17
2019-05-01T03:03:06.933Z,4.43
2019-05-01T03:05:36.330Z,5.10
2019-05-01T03:08:06.355Z,4.23
2019-05-01T03:10:35.914Z,4.30
2019-05-01T03:13:05.251Z,5.10
2019-05-01T03:15:36.390Z,4.03
2019-05-01T03:18:29.639Z,4.57
2019-05-01T03:21:21.039Z,4.63
2019-05-01T03:24:00.824Z,3.50
2019-05-01T03:26:31.111Z,4.53
2019-05-01T03:29:00.752Z,5.00
2019-05-01T03:31:30.229Z,3.73
2019-05-01T03:33:59.637Z,4.00
2019-05-01T03:36:29.014Z,4.10
2019-05-01T03:38:59.067Z,5.30
2019-05-01T03:41:28.511Z,4.40
2019-05-01T03:43:57.953Z,4.27
2019-05-01T03:46:27.887Z,3.70
2019-05-01T03:48:57.443Z,3.80
2019-05-01T03:51:27.140Z,4.53
2019-05-01T03:53:56.483Z,3.20
2019-05-01T03:56:25.862Z,3.40
2019-05-01T03:58:55.815Z,3.10
2019-05-01T04:01:51.146Z,4.93
2019-05-01T04:04:23.006Z,5.23
2019-05-01T04:06:52.618Z,4.67
2019-05-01T04:09:21.933Z,4.90
2019-05-01T04:11:51.355Z,4.37
2019-05-01T04:14:20.978Z,4.67
2019-05-01T04:16:55.396Z,3.57
2019-05-01T04:19:24.983Z,3.80
2019-05-01T04:22:03.812Z,3.87
2019-05-01T04:24:33.296Z,5.17
2019-05-01T04:27:04.406Z,4.87
2019-05-01T04:29:40.346Z,3.93
2019-05-01T04:32:17.564Z,4.80
2019-05-01T04:35:06.431Z,4.13
2019-05-01T04:37:35.955Z,3.33
2019-05-01T04:40:05.986Z,3.53
2019-05-01T04:42:35.282Z,4.30
2019-05-01T04:45:04.687Z,4.60
2019-05-01T04:47:34.400Z,3.97
2019-05-01T04:50:03.953Z,4.50
2019-05-01T04:52:33.389Z,3.50
2019-05-01T04:55:03.297Z,3.90
2019-05-01T04:57:32.826Z,4.80
2019-05-01T05:00:03.809Z,4.60
2019-05-01T05:02:39.825Z,4.70
2019-05-01T05:05:09.350Z,5.83
2019-05-01T05:07:38.742Z,4.30
2019-05-01T05:10:08.455Z,4.67
2019-05-01T05:12:58.314Z,4.10
2019-05-01T05:15:59.097Z,3.67
2019-05-01T05:18:28.754Z,4.23
2019-05-01T05:20:58.234Z,3.73
2019-05-01T05:23:27.795Z,4.10
2019-05-01T05:25:57.122Z,3.00
2019-05-01T05:28:26.785Z,3.70
2019-05-01T05:30:57.894Z,4.07
2019-05-01T05:33:30.502Z,3.80
2019-05-01T05:36:00.800Z,3.70
2019-05-01T05:38:53.641Z,3.33
2019-05-01T05:41:23.809Z,3.30
2019-05-01T05:43:53.973Z,3.67
2019-05-01T05:46:23.886Z,3.93
2019-05-01T05:48:53.325Z,4.60
2019-05-01T05:51:48.597Z,4.77
2019-05-01T05:54:57.954Z,3.20
2019-05-01T05:57:40.617Z,3.37
2019-05-01T06:00:28.985Z,3.67
2019-05-01T06:03:08.634Z,3.90
2019-05-01T06:05:48.878Z,3.03
2019-05-01T06:08:21.919Z,4.70
2019-05-01T06:11:09.124Z,2.80
2019-05-01T06:14:13.505Z,3.97
2019-05-01T06:16:52.028Z,3.73
2019-05-01T06:19:37.122Z,3.30
2019-05-01T06:22:31.560Z,4.10
2019-05-01T06:25:21.312Z,3.07
2019-05-01T06:27:44.801Z,3.63
2019-05-01T06:30:15.705Z,4.07
2019-05-01T06:32:46.144Z,2.93
2019-05-01T06:35:15.489Z,4.17
2019-05-01T06:38:03.383Z,4.20
2019-05-01T06:40:42.149Z,3.83
2019-05-01T06:43:28.498Z,4.20
2019-05-01T06:46:15.410Z,3.57
2019-05-01T06:48:53.370Z,4.60
2019-05-01T06:51:59.472Z,4.43
2019-05-01T06:54:30.840Z,4.00
2019-05-01T06:57:02.521Z,3.40
2019-05-01T06:59:34.656Z,4.53
2019-05-01T07:02:04.407Z,4.07
2019-05-01T07:04:37.883Z,3.87
2019-05-01T07:07:09.871Z,4.67
2019-05-01T07:09:39.068Z,3.90
2019-05-01T07:12:13.275Z,3.67
2019-05-01T07:14:47.194Z,3.63
2019-05-01T07:17:14.797Z,3.63
2019-05-01T07:20:21.918Z,3.57
2019-05-01T07:22:51.821Z,6.77
2019-05-01T07:25:21.461Z,4.90
2019-05-01T07:27:53.889Z,3.93
2019-05-01T07:30:45.149Z,3.87
2019-05-01T07:33:16.615Z,3.90
2019-05-01T07:35:46.802Z,4.20
2019-05-01T07:38:16.675Z,3.53
2019-05-01T07:40:46.563Z,3.97
2019-05-01T07:43:38.102Z,4.30
2019-05-01T07:46:25.521Z,3.57
2019-05-01T07:48:55.345Z,3.53
2019-05-01T07:51:24.889Z,3.77
2019-05-01T07:53:58.921Z,3.77
2019-05-01T07:56:28.020Z,3.80
2019-05-01T07:58:57.805Z,3.93
2019-05-01T08:01:54.493Z,3.90
2019-05-01T08:04:35.797Z,4.07
2019-05-01T08:06:57.128Z,4.20
2019-05-01T08:09:25.181Z,4.30
2019-05-01T08:11:54.529Z,4.07
2019-05-01T08:14:23.881Z,3.93
2019-05-01T08:16:53.333Z,4.40
2019-05-01T08:19:34.768Z,4.47
2019-05-01T08:22:13.050Z,3.10
2019-05-01T08:24:42.961Z,3.90
2019-05-01T08:27:25.173Z,3.93
2019-05-01T08:30:03.481Z,3.83
2019-05-01T08:32:40.995Z,3.40
2019-05-01T08:35:12.440Z,3.07
2019-05-01T08:37:41.849Z,3.93
2019-05-01T08:40:11.394Z,3.97
2019-05-01T08:42:42.547Z,3.80
2019-05-01T08:45:29.546Z,4.13
2019-05-01T08:48:17.833Z,4.17
2019-05-01T08:50:47.211Z,4.57
2019-05-01T08:53:18.167Z,4.07
2019-05-01T08:55:47.741Z,4.23
2019-05-01T08:58:17.034Z,4.70
2019-05-01T09:00:46.379Z,4.30
2019-05-01T09:03:18.659Z,4.80
2019-05-01T09:05:46.762Z,4.60
2019-05-01T09:08:16.117Z,3.87
2019-05-01T09:10:45.425Z,4.70
2019-05-01T09:13:18.817Z,4.90
2019-05-01T09:15:48.302Z,5.03
2019-05-01T09:18:18.899Z,4.60
2019-05-01T09:20:49.737Z,4.03
2019-05-01T09:23:19.089Z,4.27
2019-05-01T09:26:14.640Z,3.80
2019-05-01T09:28:42.406Z,3.77
2019-05-01T09:31:13.497Z,3.53
2019-05-01T09:33:42.851Z,3.40
2019-05-01T09:36:12.347Z,3.47
2019-05-01T09:38:41.725Z,4.20
2019-05-01T09:41:11.213Z,4.17
2019-05-01T09:43:40.634Z,3.70
2019-05-01T09:46:09.994Z,3.73
2019-05-01T09:48:39.525Z,4.10
2019-05-01T09:51:20.557Z,4.00
2019-05-01T09:53:58.822Z,3.80
2019-05-01T09:56:28.379Z,4.00
2019-05-01T09:58:57.719Z,3.27
2019-05-01T10:01:31.721Z,3.83
2019-05-01T10:03:58.182Z,4.13
2019-05-01T10:06:27.517Z,3.40
2019-05-01T10:08:56.882Z,2.63
2019-05-01T10:11:26.245Z,3.63
2019-05-01T10:13:59.725Z,3.33
2019-05-01T10:16:29.391Z,3.23
2019-05-01T10:18:58.820Z,2.97
2019-05-01T10:21:28.975Z,3.90
2019-05-01T10:23:58.449Z,3.13
2019-05-01T10:26:29.359Z,3.60
2019-05-01T10:29:12.194Z,2.70
2019-05-01T10:31:59.414Z,3.47
2019-05-01T10:34:47.754Z,3.03
2019-05-01T10:37:17.182Z,3.53
2019-05-01T10:39:50.162Z,3.60
2019-05-01T10:42:17.663Z,3.27
2019-05-01T10:44:47.181Z,2.27
2019-05-01T10:47:16.515Z,3.17
2019-05-01T10:49:45.877Z,2.83
2019-05-01T10:52:15.237Z,2.80
2019-05-01T10:54:46.537Z,3.67
2019-05-01T10:57:15.564Z,3.15
2019-05-01T10:59:46.485Z,2.67
2019-05-01T11:02:17.541Z,2.37
2019-05-01T11:04:46.897Z,3.07
2019-05-01T11:07:16.275Z,2.93
2019-05-01T11:09:45.669Z,3.03
2019-05-01T11:12:15.077Z,3.00
2019-05-01T11:14:45.412Z,3.10
2019-05-01T11:17:14.847Z,2.30
2019-05-01T11:19:44.225Z,2.90
2019-05-01T11:22:13.671Z,2.97
2019-05-01T11:24:43.109Z,2.70
2019-05-01T11:27:12.455Z,3.03
2019-05-01T11:29:41.753Z,2.90
2019-05-01T11:32:19.421Z,3.07
2019-05-01T11:35:21.393Z,2.60
2019-05-01T11:38:08.204Z,2.60
2019-05-01T11:40:39.936Z,2.57
2019-05-01T11:43:09.313Z,3.10
2019-05-01T11:45:38.794Z,2.67
2019-05-01T11:48:08.225Z,2.50
2019-05-01T11:50:37.805Z,3.57
2019-05-01T11:53:07.113Z,3.03
2019-05-01T11:55:36.534Z,2.77
2019-05-01T11:58:05.849Z,2.93
2019-05-01T12:00:35.403Z,2.70
2019-05-01T12:03:04.878Z,2.63
2019-05-01T12:05:34.293Z,2.73
2019-05-01T12:08:03.705Z,2.67
2019-05-01T12:10:33.158Z,2.70
2019-05-01T12:13:02.513Z,2.80
2019-05-01T12:15:31.895Z,3.10
2019-05-01T12:18:01.797Z,2.57
2019-05-01T12:20:31.129Z,3.03
2019-05-01T12:23:00.565Z,2.60
2019-05-01T12:25:29.865Z,2.67
2019-05-01T12:27:59.211Z,2.93
2019-05-01T12:30:28.645Z,3.10
2019-05-01T12:32:57.967Z,3.00
2019-05-01T12:35:27.323Z,2.60
2019-05-01T12:37:59.739Z,2.67
2019-05-01T12:40:29.198Z,3.37
2019-05-01T12:42:58.593Z,3.17
2019-05-01T12:45:27.899Z,3.13
2019-05-01T12:48:03.010Z,3.27
2019-05-01T12:50:32.345Z,2.43
2019-05-01T12:53:29.715Z,3.70
2019-05-01T12:56:18.085Z,2.87
2019-05-01T12:58:49.021Z,3.37
2019-05-01T13:01:18.515Z,2.63
2019-05-01T13:03:47.814Z,3.73
2019-05-01T13:06:17.226Z,3.50
2019-05-01T13:08:46.671Z,3.67
2019-05-01T13:11:16.099Z,3.30
2019-05-01T13:13:45.512Z,3.07
2019-05-01T13:16:14.905Z,3.10
2019-05-01T13:18:44.346Z,2.90
2019-05-01T13:21:13.655Z,3.03
2019-05-01T13:23:43.141Z,2.80
2019-05-01T13:26:20.686Z,3.83
2019-05-01T13:29:11.858Z,3.33
2019-05-01T13:31:48.217Z,2.90
2019-05-01T13:34:17.716Z,3.58
2019-05-01T13:36:47.143Z,3.20
2019-05-01T13:39:16.607Z,3.70
2019-05-01T13:41:46.051Z,3.70
2019-05-01T13:44:15.433Z,3.03
2019-05-01T13:46:44.783Z,3.50
2019-05-01T13:49:14.097Z,2.97
2019-05-01T13:51:43.429Z,3.80
2019-05-01T13:54:12.866Z,3.67
2019-05-01T13:56:42.245Z,3.53
2019-05-01T13:59:13.700Z,3.30
2019-05-01T14:01:43.160Z,4.07
2019-05-01T14:04:13.525Z,3.43
2019-05-01T14:06:42.923Z,3.83
2019-05-01T14:09:16.364Z,3.73
2019-05-01T14:11:45.929Z,3.87
2019-05-01T14:14:15.257Z,3.40
2019-05-01T14:16:44.637Z,3.80
2019-05-01T14:19:14.051Z,3.40
2019-05-01T14:21:49.462Z,3.93
2019-05-01T14:24:35.783Z,3.77
2019-05-01T14:27:07.562Z,4.03
2019-05-01T14:29:36.150Z,3.47
2019-05-01T14:32:05.699Z,3.80
2019-05-01T14:34:35.059Z,3.93
2019-05-01T14:37:04.733Z,4.05
2019-05-01T14:39:34.091Z,3.17
2019-05-01T14:42:03.427Z,4.27
2019-05-01T14:44:37.068Z,3.87
2019-05-01T14:47:03.825Z,4.00
2019-05-01T14:49:33.265Z,3.77
2019-05-01T14:52:02.663Z,3.50
2019-05-01T14:54:32.037Z,3.97
2019-05-01T14:57:01.351Z,3.53
2019-05-01T14:59:30.767Z,3.67
2019-05-01T15:02:00.218Z,3.93
2019-05-01T15:04:29.561Z,3.47
2019-05-01T15:06:58.898Z,4.83
2019-05-01T15:09:28.214Z,4.13
2019-05-01T15:11:57.533Z,3.43
2019-05-01T15:14:48.616Z,3.60
2019-05-01T15:17:24.727Z,3.67
2019-05-01T15:20:01.456Z,4.07
2019-05-01T15:22:30.871Z,4.13
2019-05-01T15:25:00.179Z,4.67
2019-05-01T15:27:29.523Z,4.47
2019-05-01T15:29:58.870Z,4.00
2019-05-01T15:32:28.237Z,3.93
2019-05-01T15:34:57.545Z,4.50
2019-05-01T15:37:26.938Z,3.60
2019-05-01T15:40:00.601Z,4.03
2019-05-01T15:42:51.679Z,4.30
2019-05-01T15:45:21.050Z,3.80
2019-05-01T15:47:50.399Z,3.37
2019-05-01T15:50:19.702Z,3.77
2019-05-01T15:52:49.033Z,3.43
2019-05-01T15:55:18.349Z,4.10
2019-05-01T15:57:47.774Z,3.93
2019-05-01T16:00:19.879Z,3.90
2019-05-01T16:02:49.255Z,4.63
2019-05-01T16:05:18.662Z,4.07
2019-05-01T16:07:47.981Z,4.53
2019-05-01T16:10:19.613Z,4.57
2019-05-01T16:12:56.180Z,3.87
2019-05-01T16:15:33.108Z,4.00
2019-05-01T16:18:02.521Z,3.90
2019-05-01T16:20:31.949Z,4.40
2019-05-01T16:23:01.361Z,4.37
2019-05-01T16:25:30.766Z,3.73
2019-05-01T16:28:00.170Z,3.93
2019-05-01T16:30:29.505Z,3.97
2019-05-01T16:32:58.903Z,4.10
2019-05-01T16:35:28.336Z,3.37
2019-05-01T16:37:59.646Z,4.03
2019-05-01T16:40:36.611Z,4.33
2019-05-01T16:43:08.696Z,5.07
2019-05-01T16:45:39.116Z,4.57
2019-05-01T16:48:09.783Z,4.10
2019-05-01T16:50:39.237Z,4.67
2019-05-01T16:53:09.509Z,4.40
2019-05-01T16:55:38.865Z,4.23
2019-05-01T16:58:10.313Z,3.80
2019-05-01T17:01:14.465Z,4.00
2019-05-01T17:04:05.681Z,4.60
2019-05-01T17:06:50.469Z,3.93
2019-05-01T17:09:44.985Z,3.60
2019-05-01T17:12:16.169Z,3.57
2019-05-01T17:14:45.530Z,4.33
2019-05-01T17:17:18.384Z,4.87
2019-05-01T17:19:47.807Z,3.60
2019-05-01T17:22:17.333Z,3.77
2019-05-01T17:24:46.688Z,5.53
2019-05-01T17:27:16.106Z,3.50
2019-05-01T17:29:45.532Z,4.17
2019-05-01T17:32:17.114Z,4.87
2019-05-01T17:34:46.558Z,4.33
2019-05-01T17:37:15.920Z,3.87
2019-05-01T17:39:45.319Z,3.60
2019-05-01T17:42:14.666Z,3.70
2019-05-01T17:44:44.070Z,3.20
2019-05-01T17:47:13.523Z,4.50
2019-05-01T17:49:44.855Z,4.07
2019-05-01T17:52:13.897Z,3.90
2019-05-01T17:54:43.267Z,3.87
2019-05-01T17:57:12.677Z,4.13
2019-05-01T17:59:42.103Z,3.20
2019-05-01T18:02:30.489Z,3.53
2019-05-01T18:05:21.809Z,3.63
2019-05-01T18:07:51.243Z,3.13
2019-05-01T18:10:20.596Z,3.40
2019-05-01T18:12:50.007Z,3.37
2019-05-01T18:15:19.327Z,3.93
2019-05-01T18:17:48.779Z,4.43
2019-05-01T18:20:18.312Z,4.17
2019-05-01T18:23:15.545Z,3.33
2019-05-01T18:25:48.649Z,3.67
2019-05-01T18:28:39.562Z,3.67
2019-05-01T18:31:13.013Z,4.67
2019-05-01T18:33:42.424Z,3.70
2019-05-01T18:36:11.986Z,4.27
2019-05-01T18:38:50.855Z,3.67
2019-05-01T18:41:31.658Z,3.93
2019-05-01T18:44:05.126Z,3.50
2019-05-01T18:46:32.036Z,3.57
2019-05-01T18:49:03.053Z,3.97
2019-05-01T18:51:36.081Z,3.60
2019-05-01T18:54:03.464Z,4.07
2019-05-01T18:56:32.904Z,4.07
2019-05-01T18:59:03.413Z,3.87
2019-05-01T19:01:32.764Z,3.50
2019-05-01T19:04:03.427Z,3.63
2019-05-01T19:06:40.977Z,3.27
2019-05-01T19:09:14.744Z,3.87
2019-05-01T19:11:37.577Z,4.17
2019-05-01T19:14:07.550Z,4.43
2019-05-01T19:16:39.952Z,3.80
2019-05-01T19:19:07.975Z,4.47
2019-05-01T19:21:41.743Z,3.80
2019-05-01T19:24:10.051Z,3.63
2019-05-01T19:26:42.684Z,3.13
2019-05-01T19:29:10.824Z,4.43
2019-05-01T19:31:40.312Z,3.10
2019-05-01T19:34:09.823Z,4.50
2019-05-01T19:36:40.400Z,3.63
2019-05-01T19:39:11.650Z,4.03
2019-05-01T19:41:43.516Z,3.60
2019-05-01T19:44:13.913Z,3.30
2019-05-01T19:46:43.662Z,3.70
2019-05-01T19:49:13.062Z,4.60
2019-05-01T19:51:42.518Z,3.47
2019-05-01T19:54:11.875Z,4.17
2019-05-01T19:56:41.277Z,2.83
2019-05-01T19:59:10.630Z,3.00
2019-05-01T20:01:44.702Z,3.90
2019-05-01T20:04:13.071Z,3.23
2019-05-01T20:06:42.717Z,3.00
2019-05-01T20:09:13.735Z,2.73
2019-05-01T20:11:43.094Z,2.97
2019-05-01T20:14:12.472Z,3.77
2019-05-01T20:16:41.913Z,3.80
2019-05-01T20:19:11.214Z,2.83
2019-05-01T20:21:41.847Z,3.40
2019-05-01T20:24:11.384Z,3.07
2019-05-01T20:26:40.701Z,3.30
2019-05-01T20:29:10.241Z,2.67
2019-05-01T20:31:39.621Z,3.67
2019-05-01T20:34:11.947Z,3.23
2019-05-01T20:36:40.145Z,3.20
2019-05-01T20:39:10.217Z,3.17
2019-05-01T20:41:39.632Z,2.67
2019-05-01T20:44:08.949Z,3.33
2019-05-01T20:46:38.310Z,4.10
2019-05-01T20:49:07.674Z,3.83
2019-05-01T20:51:37.078Z,4.27
2019-05-01T20:54:06.480Z,4.60
2019-05-01T20:56:41.228Z,4.50
2019-05-01T20:59:10.589Z,4.83
2019-05-01T21:01:39.983Z,5.40
2019-05-01T21:04:26.998Z,4.17
2019-05-01T21:07:19.822Z,5.20
2019-05-01T21:09:48.173Z,4.47
2019-05-01T21:12:18.179Z,4.93
2019-05-01T21:14:49.484Z,4.43
2019-05-01T21:17:18.572Z,4.57
2019-05-01T21:19:47.998Z,5.50
2019-05-01T21:22:17.423Z,4.20
2019-05-01T21:24:46.848Z,4.27
2019-05-01T21:27:16.161Z,5.27
2019-05-01T21:29:45.495Z,4.40
2019-05-01T21:32:18.407Z,5.37
2019-05-01T21:34:46.017Z,4.83
2019-05-01T21:37:15.343Z,5.17
2019-05-01T21:39:44.734Z,4.60
2019-05-01T21:42:16.045Z,5.53
2019-05-01T21:44:45.231Z,4.83
2019-05-01T21:47:14.523Z,4.77
2019-05-01T21:49:44.101Z,6.10
2019-05-01T21:52:13.673Z,6.50
2019-05-01T21:54:44.553Z,5.33
2019-05-01T21:57:17.440Z,4.77
2019-05-01T21:59:48.077Z,6.20
2019-05-01T22:02:16.097Z,5.60
2019-05-01T22:04:45.425Z,5.37
2019-05-01T22:07:14.963Z,6.00
2019-05-01T22:09:45.548Z,5.80
2019-05-01T22:12:15.441Z,5.17
2019-05-01T22:14:50.645Z,5.67
2019-05-01T22:17:32.402Z,4.67
2019-05-01T22:20:01.133Z,5.53
2019-05-01T22:22:38.850Z,6.70
2019-05-01T22:25:16.918Z,5.60
2019-05-01T22:27:50.490Z,5.30
2019-05-01T22:30:34.026Z,5.10
2019-05-01T22:33:03.442Z,5.17
2019-05-01T22:35:39.120Z,5.87
2019-05-01T22:38:08.794Z,6.40
2019-05-01T22:40:47.378Z,5.17
2019-05-01T22:43:16.757Z,4.77
2019-05-01T22:45:46.310Z,4.23
2019-05-01T22:48:15.642Z,5.37
2019-05-01T22:50:47.269Z,4.83
2019-05-01T22:53:16.636Z,4.63
2019-05-01T22:55:45.974Z,6.00
2019-05-01T22:58:15.318Z,5.50
2019-05-01T23:00:56.481Z,5.00
2019-05-01T23:03:50.997Z,6.20
2019-05-01T23:06:20.937Z,5.57
2019-05-01T23:08:50.271Z,4.73
2019-05-01T23:11:20.590Z,5.70
2019-05-01T23:13:50.291Z,5.27
2019-05-01T23:16:21.617Z,5.47
2019-05-01T23:18:52.067Z,4.97
2019-05-01T23:21:22.016Z,3.97
2019-05-01T23:23:51.419Z,4.97
2019-05-01T23:26:20.768Z,3.77
2019-05-01T23:28:50.085Z,4.50
2019-05-01T23:31:19.863Z,5.00
2019-05-01T23:33:50.555Z,4.80
2019-05-01T23:36:23.611Z,5.13
2019-05-01T23:38:51.330Z,4.77
2019-05-01T23:41:24.883Z,4.27
2019-05-01T23:43:51.722Z,4.00
2019-05-01T23:46:21.131Z,3.77
2019-05-01T23:48:50.461Z,4.50
2019-05-01T23:51:23.783Z,3.93
2019-05-01T23:53:50.874Z,4.53
2019-05-01T23:56:20.190Z,3.27
2019-05-01T23:58:49.537Z,3.60
